Time;durP1;ratioP1;P1;durP2;ratioP2;P2;SDS_P1;SDS_P2;PMS_P1;PMS_P2;Temp;Humidity;BMP_temperature;BMP_pressure;BME280_temperature;BME280_humidity;BME280_pressure;Samples;Min_cycle;Max_cycle;Signal;HPM_P1;HPM_P2
2021/08/06 00:01:14;;;;;;;9.18;7.22;;;14.80;99.90;;;;;;5054855;28;20583;-43
2021/08/06 00:03:40;;;;;;;10.27;7.18;;;14.80;99.90;;;;;;5054847;28;20060;-43
2021/08/06 00:06:06;;;;;;;6.07;5.47;;;14.80;99.90;;;;;;5053977;28;20036;-42
2021/08/06 00:08:32;;;;;;;5.50;5.10;;;14.80;99.90;;;;;;5054891;28;20091;-42
2021/08/06 00:10:58;;;;;;;5.95;5.45;;;14.80;99.90;;;;;;5053921;28;20092;-42
2021/08/06 00:13:23;;;;;;;5.80;5.30;;;14.80;99.90;;;;;;5054333;28;20053;-42
2021/08/06 00:15:48;;;;;;;5.50;5.00;;;14.80;99.90;;;;;;5054592;28;20028;-44
2021/08/06 00:18:14;;;;;;;5.60;5.10;;;14.80;99.90;;;;;;5054388;28;20017;-42
2021/08/06 00:20:40;;;;;;;6.65;6.00;;;14.70;99.90;;;;;;5053524;28;20079;-44
2021/08/06 00:23:05;;;;;;;6.38;5.78;;;14.80;99.90;;;;;;5054446;28;20025;-42
2021/08/06 00:25:31;;;;;;;5.38;4.88;;;14.80;99.90;;;;;;5053237;28;20033;-42
2021/08/06 00:27:57;;;;;;;7.68;5.85;;;14.70;99.90;;;;;;5054533;28;20029;-42
2021/08/06 00:30:23;;;;;;;6.43;5.82;;;14.70;99.90;;;;;;5054385;28;20032;-42
2021/08/06 00:32:48;;;;;;;5.70;5.13;;;14.70;99.90;;;;;;5054410;28;20036;-42
2021/08/06 00:35:14;;;;;;;6.05;5.50;;;14.70;99.90;;;;;;5053282;28;20427;-42
2021/08/06 00:37:39;;;;;;;8.75;7.85;;;14.80;99.90;;;;;;5054395;28;20025;-42
2021/08/06 00:40:06;;;;;;;8.05;6.18;;;14.70;99.90;;;;;;5054091;28;20442;-42
2021/08/06 00:42:31;;;;;;;7.32;6.63;;;14.80;99.90;;;;;;5054153;28;20174;-44
2021/08/06 00:44:57;;;;;;;6.20;5.60;;;14.80;99.90;;;;;;5054121;28;20064;-42
2021/08/06 00:47:22;;;;;;;7.45;5.35;;;14.80;99.90;;;;;;5054108;28;20029;-44
2021/08/06 00:49:48;;;;;;;6.38;5.75;;;14.80;99.90;;;;;;5053122;28;20024;-42
2021/08/06 00:52:14;;;;;;;4.63;4.22;;;14.80;99.90;;;;;;5053994;28;20035;-44
2021/08/06 00:54:40;;;;;;;6.35;5.82;;;14.80;99.90;;;;;;5053825;28;20247;-43
2021/08/06 00:57:06;;;;;;;5.80;5.30;;;14.80;99.90;;;;;;5053949;28;20036;-43
2021/08/06 00:59:31;;;;;;;5.80;5.30;;;14.90;99.90;;;;;;5053925;28;20025;-42
2021/08/06 01:02:21;;;;;;;6.35;5.63;;;14.90;99.90;;;;;;5053874;28;20021;-44
2021/08/06 01:05:00;;;;;;;7.18;5.18;;;14.90;99.90;;;;;;5052672;28;20456;-42
2021/08/06 01:08:02;;;;;;;5.38;4.88;;;14.90;99.90;;;;;;5053474;28;20547;-42
2021/08/06 01:10:37;;;;;;;6.18;5.57;;;15.00;99.90;;;;;;5053319;28;20083;-44
2021/08/06 01:13:07;;;;;;;6.30;5.32;;;15.00;99.90;;;;;;5053562;28;20476;-42
2021/08/06 01:15:35;;;;;;;6.13;5.10;;;15.00;99.90;;;;;;5053313;28;20120;-42
2021/08/06 01:18:03;;;;;;;5.50;5.00;;;15.00;99.90;;;;;;5053510;28;20500;-42
2021/08/06 01:20:33;;;;;;;6.35;5.75;;;15.10;99.90;;;;;;5052446;28;20043;-42
2021/08/06 01:23:11;;;;;;;6.20;5.60;;;15.10;99.90;;;;;;5052445;28;20035;-42
2021/08/06 01:25:51;;;;;;;6.38;5.75;;;15.10;99.90;;;;;;5053393;28;20491;-44
2021/08/06 01:28:21;;;;;;;6.50;5.90;;;15.10;99.90;;;;;;5053125;28;20087;-43
2021/08/06 01:30:47;;;;;;;5.10;4.70;;;15.10;99.90;;;;;;5053308;28;20510;-42
2021/08/06 01:33:14;;;;;;;5.25;4.75;;;15.10;99.90;;;;;;5053204;28;20025;-42
2021/08/06 01:35:40;;;;;;;6.38;4.93;;;15.20;99.90;;;;;;5052204;28;20032;-44
2021/08/06 01:38:06;;;;;;;6.25;5.65;;;15.10;99.90;;;;;;5053139;28;20059;-44
2021/08/06 01:41:01;;;;;;;7.40;6.57;;;15.20;99.90;;;;;;5052991;28;20033;-43
2021/08/06 01:43:46;;;;;;;5.85;5.35;;;15.20;99.90;;;;;;5051746;28;20076;-42
2021/08/06 01:46:27;;;;;;;5.10;4.65;;;15.20;99.90;;;;;;5053033;28;20017;-42
2021/08/06 01:49:01;;;;;;;6.97;5.80;;;15.20;99.90;;;;;;5051973;28;20021;-43
2021/08/06 01:51:28;;;;;;;6.05;5.45;;;15.20;99.90;;;;;;5052832;28;20032;-43
2021/08/06 01:53:57;;;;;;;5.85;5.25;;;15.20;99.90;;;;;;5052895;28;20029;-42
2021/08/06 01:56:23;;;;;;;5.95;5.35;;;15.20;99.90;;;;;;5052796;28;20074;-43
2021/08/06 01:58:56;;;;;;;6.65;5.95;;;15.20;99.90;;;;;;5052836;28;20029;-42
2021/08/06 02:01:22;;;;;;;5.63;4.93;;;15.20;99.90;;;;;;5052770;28;20017;-42
2021/08/06 02:03:48;;;;;;;7.72;6.80;;;15.30;99.90;;;;;;5051605;28;20546;-42
2021/08/06 02:06:17;;;;;;;8.05;7.18;;;15.30;99.90;;;;;;5052724;28;20072;-43
2021/08/06 02:08:44;;;;;;;8.25;7.38;;;15.30;99.90;;;;;;5052698;28;20029;-42
2021/08/06 02:11:10;;;;;;;7.57;6.55;;;15.30;99.90;;;;;;5052718;28;20040;-42
2021/08/06 02:13:36;;;;;;;11.45;7.00;;;15.30;99.90;;;;;;5052453;28;20029;-42
2021/08/06 02:16:02;;;;;;;8.70;7.78;;;15.30;99.90;;;;;;5052511;28;20028;-44
2021/08/06 02:18:30;;;;;;;7.22;6.63;;;15.30;99.90;;;;;;5052462;28;20044;-42
2021/08/06 02:20:58;;;;;;;7.57;6.88;;;15.30;99.90;;;;;;5051650;28;20480;-43
2021/08/06 02:23:25;;;;;;;7.93;7.13;;;15.30;99.90;;;;;;5052468;28;20025;-44
2021/08/06 02:25:54;;;;;;;11.07;8.85;;;15.30;99.90;;;;;;5052485;28;20414;-42
2021/08/06 02:28:20;;;;;;;8.45;7.53;;;15.30;99.90;;;;;;5052447;28;20066;-44
2021/08/06 02:30:47;;;;;;;8.35;7.55;;;15.30;99.90;;;;;;5052316;28;20021;-43
2021/08/06 02:33:14;;;;;;;6.63;6.03;;;15.30;99.90;;;;;;5052453;28;20037;-42
2021/08/06 02:35:39;;;;;;;9.68;7.90;;;15.30;99.90;;;;;;5054654;28;20025;-42
2021/08/06 02:38:05;;;;;;;9.15;7.55;;;15.30;99.90;;;;;;5056586;28;20388;-42
2021/08/06 02:40:31;;;;;;;7.53;5.93;;;15.30;99.90;;;;;;5056455;28;20032;-44
2021/08/06 02:42:56;;;;;;;7.45;6.75;;;15.30;99.90;;;;;;5056449;28;20060;-44
2021/08/06 02:45:22;;;;;;;6.38;5.78;;;15.30;99.90;;;;;;5056244;28;20021;-42
2021/08/06 02:47:48;;;;;;;6.78;6.18;;;15.30;99.90;;;;;;5056415;28;20032;-42
2021/08/06 02:50:14;;;;;;;6.38;5.80;;;15.30;99.90;;;;;;5055411;28;20068;-43
2021/08/06 02:52:40;;;;;;;6.78;6.10;;;15.30;99.90;;;;;;5056146;28;20033;-43
2021/08/06 02:55:06;;;;;;;7.13;5.93;;;15.30;99.90;;;;;;5056178;28;20036;-44
2021/08/06 02:57:32;;;;;;;9.35;8.45;;;15.30;99.90;;;;;;5056107;28;20079;-42
2021/08/06 02:59:57;;;;;;;7.15;6.38;;;15.30;99.90;;;;;;5054694;28;20048;-43
2021/08/06 03:02:23;;;;;;;9.40;8.50;;;15.30;99.90;;;;;;5056044;28;20025;-42
2021/08/06 03:04:48;;;;;;;8.35;7.07;;;15.30;99.90;;;;;;5054960;28;20061;-44
2021/08/06 03:07:14;;;;;;;8.52;7.20;;;15.30;99.90;;;;;;5056037;28;20032;-42
2021/08/06 03:09:39;;;;;;;8.20;7.40;;;15.30;99.90;;;;;;5055860;28;20422;-42
2021/08/06 03:12:05;;;;;;;9.38;8.45;;;15.20;99.90;;;;;;5055841;28;20464;-42
2021/08/06 03:14:31;;;;;;;9.73;8.63;;;15.20;99.90;;;;;;5055575;28;20029;-43
2021/08/06 03:16:56;;;;;;;6.90;6.30;;;15.20;99.90;;;;;;5055805;28;20068;-43
2021/08/06 03:19:22;;;;;;;8.05;6.90;;;15.20;99.90;;;;;;5054756;28;20025;-44
2021/08/06 03:21:47;;;;;;;6.70;6.10;;;15.20;99.90;;;;;;5055689;28;20071;-42
2021/08/06 03:24:13;;;;;;;6.82;6.22;;;15.20;99.90;;;;;;5055642;28;20033;-42
2021/08/06 03:26:38;;;;;;;5.32;4.82;;;15.20;99.90;;;;;;5055559;28;20036;-43
2021/08/06 03:29:04;;;;;;;5.97;5.43;;;15.20;99.90;;;;;;5055562;28;20037;-42
2021/08/06 03:31:29;;;;;;;7.30;5.60;;;15.20;99.90;;;;;;5055439;28;20033;-42
2021/08/06 03:33:55;;;;;;;10.60;7.43;;;15.20;99.90;;;;;;5054526;28;20036;-42
2021/08/06 03:36:20;;;;;;;6.38;5.85;;;15.20;99.90;;;;;;5055460;28;20075;-42
2021/08/06 03:38:46;;;;;;;5.95;5.45;;;15.20;99.90;;;;;;5055397;28;20025;-42
2021/08/06 03:41:12;;;;;;;6.28;5.68;;;15.20;99.90;;;;;;5055510;28;20377;-42
2021/08/06 03:43:38;;;;;;;7.68;5.97;;;15.20;99.90;;;;;;5055187;28;20096;-43
2021/08/06 03:46:03;;;;;;;6.50;5.85;;;15.20;99.90;;;;;;5053839;28;20108;-42
2021/08/06 03:48:29;;;;;;;7.00;6.30;;;15.20;99.90;;;;;;5055210;28;20376;-42
2021/08/06 03:50:55;;;;;;;8.10;6.03;;;15.20;99.90;;;;;;5054320;28;20033;-42
2021/08/06 03:53:20;;;;;;;6.22;5.70;;;15.20;99.90;;;;;;5055243;28;20024;-42
2021/08/06 03:55:46;;;;;;;6.63;5.53;;;15.20;99.90;;;;;;5054941;28;20535;-42
2021/08/06 03:58:12;;;;;;;6.90;6.28;;;15.20;99.90;;;;;;5055092;28;20075;-43
2021/08/06 04:00:39;;;;;;;9.57;7.50;;;15.20;99.90;;;;;;5054894;28;20025;-42
2021/08/06 04:03:06;;;;;;;7.63;6.95;;;15.20;99.90;;;;;;5054822;28;20564;-42
2021/08/06 04:05:32;;;;;;;8.43;6.57;;;15.20;99.90;;;;;;5053896;28;20395;-46
2021/08/06 04:07:58;;;;;;;6.20;5.60;;;15.20;99.90;;;;;;5054949;28;20032;-43
2021/08/06 04:10:24;;;;;;;6.65;6.05;;;15.30;99.90;;;;;;5054854;28;20024;-44
2021/08/06 04:12:51;;;;;;;6.65;6.05;;;15.30;99.90;;;;;;5054680;28;20048;-45
2021/08/06 04:15:17;;;;;;;7.22;5.85;;;15.30;99.90;;;;;;5054611;28;20025;-42
2021/08/06 04:17:43;;;;;;;6.97;6.32;;;15.30;99.90;;;;;;5054673;28;20018;-43
2021/08/06 04:20:09;;;;;;;6.80;5.75;;;15.30;99.90;;;;;;5053779;28;20048;-43
2021/08/06 04:22:34;;;;;;;6.97;5.32;;;15.30;99.90;;;;;;5054549;28;20028;-44
2021/08/06 04:25:00;;;;;;;6.70;6.00;;;15.30;99.90;;;;;;5054543;28;20040;-42
2021/08/06 04:27:25;;;;;;;5.63;5.13;;;15.30;99.90;;;;;;5054490;28;20025;-44
2021/08/06 04:29:51;;;;;;;7.53;6.75;;;15.30;99.90;;;;;;5054233;28;20035;-43
2021/08/06 04:32:17;;;;;;;6.95;5.93;;;15.30;99.90;;;;;;5054487;28;20060;-43
2021/08/06 04:34:43;;;;;;;7.97;7.28;;;15.30;99.90;;;;;;5053328;28;20074;-43
2021/08/06 04:37:08;;;;;;;7.35;6.65;;;15.40;99.90;;;;;;5053056;28;20357;-43
2021/08/06 04:39:34;;;;;;;8.02;7.22;;;15.40;99.90;;;;;;5054171;28;20031;-44
2021/08/06 04:42:00;;;;;;;8.75;7.85;;;15.40;99.90;;;;;;5054268;28;20112;-43
2021/08/06 04:44:25;;;;;;;8.32;7.50;;;15.40;99.90;;;;;;5054143;28;20495;-43
2021/08/06 04:46:51;;;;;;;7.55;6.15;;;15.40;99.90;;;;;;5054027;28;20108;-44
2021/08/06 04:49:16;;;;;;;9.43;8.52;;;15.40;99.90;;;;;;5053119;28;20379;-45
2021/08/06 04:51:42;;;;;;;6.95;6.32;;;15.40;99.90;;;;;;5053978;28;20033;-44
2021/08/06 04:54:07;;;;;;;9.20;8.05;;;15.40;99.90;;;;;;5053984;28;20112;-43
2021/08/06 04:56:33;;;;;;;10.68;8.93;;;15.40;99.90;;;;;;5053945;28;20040;-45
2021/08/06 04:58:59;;;;;;;8.70;7.90;;;15.40;99.90;;;;;;5053584;28;20024;-42
2021/08/06 05:01:25;;;;;;;8.27;7.38;;;15.40;99.90;;;;;;5053937;28;20452;-43
2021/08/06 05:03:50;;;;;;;8.43;7.60;;;15.40;99.90;;;;;;5052697;28;20049;-43
2021/08/06 05:06:15;;;;;;;8.93;7.95;;;15.40;99.90;;;;;;5053864;28;20463;-43
2021/08/06 05:08:48;;;;;;;7.05;6.35;;;15.40;99.90;;;;;;5053774;28;20033;-43
2021/08/06 05:11:15;;;;;;;7.10;6.40;;;15.40;99.90;;;;;;5049910;28;20428;-44
2021/08/06 05:13:40;;;;;;;9.93;8.93;;;15.40;99.90;;;;;;5053118;28;20625;-44
2021/08/06 05:16:06;;;;;;;9.20;8.27;;;15.40;99.90;;;;;;5053490;28;20063;-44
2021/08/06 05:18:31;;;;;;;8.70;7.32;;;15.50;99.90;;;;;;5053356;28;20097;-42
2021/08/06 05:20:57;;;;;;;7.03;6.43;;;15.50;99.90;;;;;;5052530;28;20029;-44
2021/08/06 05:23:22;;;;;;;8.48;7.55;;;15.50;99.90;;;;;;5053438;28;20036;-43
2021/08/06 05:25:48;;;;;;;8.40;7.55;;;15.60;99.90;;;;;;5053386;28;20044;-45
2021/08/06 05:28:13;;;;;;;7.43;6.55;;;15.60;99.90;;;;;;5053206;28;20084;-46
2021/08/06 05:30:39;;;;;;;7.88;6.20;;;15.70;99.90;;;;;;5053260;28;20104;-44
2021/08/06 05:33:04;;;;;;;9.07;8.18;;;15.80;99.90;;;;;;5053291;28;20032;-43
2021/08/06 05:35:30;;;;;;;6.43;5.82;;;15.80;99.90;;;;;;5047826;28;20029;-46
2021/08/06 05:37:55;;;;;;;6.82;6.20;;;15.90;99.90;;;;;;5049827;28;20673;-43
2021/08/06 05:40:21;;;;;;;9.13;8.27;;;16.00;99.90;;;;;;5051566;28;20021;-45
2021/08/06 05:42:47;;;;;;;9.80;7.50;;;16.10;99.90;;;;;;5051380;28;20021;-43
2021/08/06 05:45:12;;;;;;;8.68;6.95;;;16.20;99.90;;;;;;5051779;28;20025;-44
2021/08/06 05:47:47;;;;;;;9.77;8.77;;;16.30;99.90;;;;;;5051635;28;20032;-45
2021/08/06 05:50:14;;;;;;;8.77;7.75;;;16.40;99.90;;;;;;5050831;28;20472;-43
2021/08/06 05:52:39;;;;;;;7.05;6.35;;;16.50;99.90;;;;;;5051568;28;20116;-43
2021/08/06 05:55:05;;;;;;;7.13;6.50;;;16.70;99.90;;;;;;5051444;28;20167;-45
2021/08/06 05:57:31;;;;;;;8.05;7.38;;;16.90;99.90;;;;;;5051484;28;20028;-43
2021/08/06 05:59:56;;;;;;;8.45;7.65;;;17.10;99.90;;;;;;5051439;28;20033;-43
2021/08/06 06:02:22;;;;;;;8.93;8.05;;;17.30;99.90;;;;;;5051418;28;20021;-47
2021/08/06 06:04:47;;;;;;;8.95;8.13;;;17.70;99.90;;;;;;5050273;28;20420;-44
2021/08/06 06:07:13;;;;;;;6.88;6.28;;;18.20;99.90;;;;;;5051663;28;20060;-43
2021/08/06 06:09:38;;;;;;;6.25;5.65;;;18.80;99.90;;;;;;5050707;28;20025;-46
2021/08/06 06:12:04;;;;;;;7.32;6.63;;;19.50;99.90;;;;;;5051255;28;20159;-45
2021/08/06 06:14:29;;;;;;;7.25;5.88;;;20.00;99.90;;;;;;5051344;28;20029;-44
2021/08/06 06:16:55;;;;;;;6.88;6.28;;;20.30;99.90;;;;;;5051217;28;20064;-46
2021/08/06 06:19:20;;;;;;;7.45;6.75;;;20.90;99.90;;;;;;5050493;28;20021;-45
2021/08/06 06:21:46;;;;;;;7.95;7.15;;;21.10;99.90;;;;;;5051013;28;20033;-46
2021/08/06 06:24:11;;;;;;;9.02;5.50;;;21.00;99.90;;;;;;5051280;28;20029;-43
2021/08/06 06:26:37;;;;;;;7.05;4.93;;;21.00;99.90;;;;;;5051076;28;20047;-44
2021/08/06 06:29:03;;;;;;;5.30;4.80;;;21.20;99.90;;;;;;5051229;28;20029;-44
2021/08/06 06:31:29;;;;;;;5.90;5.40;;;21.40;99.90;;;;;;5051189;28;20028;-43
2021/08/06 06:33:54;;;;;;;6.63;5.80;;;21.40;99.90;;;;;;5050200;28;20133;-44
2021/08/06 06:36:20;;;;;;;4.80;4.30;;;21.30;99.90;;;;;;5051197;28;20472;-45
2021/08/06 06:38:45;;;;;;;5.60;5.10;;;21.30;99.90;;;;;;5050980;28;20017;-44
2021/08/06 06:41:11;;;;;;;5.38;4.90;;;21.30;99.90;;;;;;5050958;28;20115;-44
2021/08/06 06:43:36;;;;;;;5.95;5.07;;;21.10;99.90;;;;;;5051108;28;20051;-43
2021/08/06 06:46:02;;;;;;;5.75;4.63;;;21.10;99.90;;;;;;5050902;28;20067;-46
2021/08/06 06:48:28;;;;;;;5.18;4.68;;;20.90;99.90;;;;;;5051076;28;20100;-45
2021/08/06 06:50:53;;;;;;;5.63;4.25;;;21.00;99.90;;;;;;5050097;28;20466;-46
2021/08/06 06:53:19;;;;;;;5.10;4.60;;;21.30;99.90;;;;;;5050974;28;20030;-44
2021/08/06 06:55:44;;;;;;;5.28;4.78;;;21.50;99.90;;;;;;5050699;28;20024;-45
2021/08/06 06:58:10;;;;;;;5.55;4.97;;;21.50;99.90;;;;;;5050838;28;20025;-48
2021/08/06 07:00:35;;;;;;;4.75;4.35;;;21.60;99.90;;;;;;5050919;28;20017;-46
2021/08/06 07:03:01;;;;;;;4.53;4.13;;;22.00;99.90;;;;;;5050682;28;20071;-44
2021/08/06 07:05:27;;;;;;;5.07;4.68;;;22.60;99.90;;;;;;5049923;28;20083;-44
2021/08/06 07:07:53;;;;;;;5.47;4.43;;;23.00;99.90;;;;;;5050883;28;20025;-46
2021/08/06 07:10:19;;;;;;;5.70;5.20;;;23.00;99.90;;;;;;5050649;28;20424;-43
2021/08/06 07:12:46;;;;;;;4.97;4.43;;;22.80;99.90;;;;;;5050739;28;20037;-46
2021/08/06 07:15:13;;;;;;;4.78;4.38;;;22.90;99.90;;;;;;5050479;28;20075;-44
2021/08/06 07:17:40;;;;;;;5.32;4.00;;;23.30;99.90;;;;;;5050731;28;20380;-43
2021/08/06 07:20:08;;;;;;;8.20;4.95;;;24.10;99.90;;;;;;5050252;28;20027;-45
2021/08/06 07:22:34;;;;;;;5.55;5.05;;;25.40;99.90;;;;;;5054486;28;20063;-43
2021/08/06 07:24:59;;;;;;;4.82;4.43;;;26.30;99.90;;;;;;5054196;28;20029;-45
2021/08/06 07:27:25;;;;;;;6.97;5.00;;;26.20;99.90;;;;;;5054351;28;20040;-45
2021/08/06 07:29:50;;;;;;;5.07;4.35;;;26.40;99.90;;;;;;5054265;28;20044;-43
2021/08/06 07:32:16;;;;;;;5.32;4.68;;;26.50;99.90;;;;;;5054309;28;20044;-45
2021/08/06 07:34:42;;;;;;;4.32;3.92;;;26.80;99.90;;;;;;5053278;28;20392;-46
2021/08/06 07:37:08;;;;;;;5.25;3.35;;;27.60;99.90;;;;;;5054155;28;20139;-43
2021/08/06 07:39:34;;;;;;;4.28;3.80;;;28.00;99.90;;;;;;5054012;28;20096;-45
2021/08/06 07:41:59;;;;;;;5.88;3.00;;;28.10;99.90;;;;;;5054026;28;20471;-46
2021/08/06 07:44:25;;;;;;;3.95;3.60;;;28.30;98.00;;;;;;5053990;28;20025;-46
2021/08/06 07:46:51;;;;;;;5.07;2.90;;;29.10;98.30;;;;;;5053951;28;20021;-46
2021/08/06 07:49:16;;;;;;;3.63;3.33;;;29.10;95.90;;;;;;5053024;28;20044;-44
2021/08/06 07:51:42;;;;;;;4.18;3.55;;;28.80;93.90;;;;;;5053942;28;20032;-41
2021/08/06 07:54:08;;;;;;;3.13;2.92;;;28.60;93.90;;;;;;5053597;28;20033;-42
2021/08/06 07:56:33;;;;;;;3.40;3.10;;;28.80;94.00;;;;;;5053790;28;20155;-42
2021/08/06 07:58:59;;;;;;;3.35;3.05;;;29.00;92.40;;;;;;5053743;28;20097;-45
2021/08/06 08:01:25;;;;;;;2.95;2.58;;;29.30;90.10;;;;;;5053829;28;20456;-43
2021/08/06 08:03:50;;;;;;;3.00;2.80;;;29.20;91.20;;;;;;5052274;28;20079;-42
2021/08/06 08:06:16;;;;;;;4.85;3.05;;;29.30;91.50;;;;;;5053708;28;20707;-43
2021/08/06 08:08:41;;;;;;;4.00;2.72;;;29.40;84.10;;;;;;5053430;28;20424;-42
2021/08/06 08:11:07;;;;;;;2.85;2.60;;;29.50;81.40;;;;;;5053570;28;20052;-43
2021/08/06 08:13:33;;;;;;;2.85;2.55;;;29.20;80.40;;;;;;5053598;28;20018;-41
2021/08/06 08:15:59;;;;;;;4.78;3.25;;;29.10;80.70;;;;;;5053346;28;20029;-43
2021/08/06 08:18:24;;;;;;;4.00;2.80;;;28.80;78.00;;;;;;5053730;28;20059;-46
2021/08/06 08:20:50;;;;;;;5.40;4.90;;;28.90;79.70;;;;;;5053371;28;20024;-43
2021/08/06 08:23:17;;;;;;;3.65;3.33;;;28.50;72.50;;;;;;5054485;28;20025;-42
2021/08/06 08:25:42;;;;;;;4.30;3.92;;;28.30;76.50;;;;;;5054840;28;20029;-42
2021/08/06 08:28:08;;;;;;;5.22;4.55;;;28.40;78.20;;;;;;5052867;28;20039;-42
2021/08/06 08:30:34;;;;;;;4.78;3.80;;;28.90;79.10;;;;;;5054458;28;20079;-43
2021/08/06 08:33:00;;;;;;;3.97;3.67;;;29.60;78.10;;;;;;5053726;28;20388;-42
2021/08/06 08:35:26;;;;;;;5.03;4.53;;;30.70;75.30;;;;;;5053110;28;20035;-42
2021/08/06 08:37:51;;;;;;;3.63;3.28;;;31.70;68.10;;;;;;5054177;28;20056;-42
2021/08/06 08:40:17;;;;;;;3.83;3.53;;;32.70;66.70;;;;;;5054272;28;20095;-43
2021/08/06 08:42:44;;;;;;;4.85;4.22;;;34.00;61.60;;;;;;5054315;28;20151;-43
2021/08/06 08:45:10;;;;;;;4.53;4.13;;;34.50;51.80;;;;;;5054145;28;20048;-42
2021/08/06 08:47:37;;;;;;;2.65;2.45;;;34.90;47.00;;;;;;5054219;28;20027;-44
2021/08/06 08:50:06;;;;;;;2.80;2.60;;;35.40;48.50;;;;;;5052756;28;20519;-42
2021/08/06 08:52:32;;;;;;;4.28;2.47;;;35.70;47.40;;;;;;5053865;28;20029;-43
2021/08/06 08:54:58;;;;;;;3.00;2.50;;;35.70;45.70;;;;;;5053709;28;20033;-43
2021/08/06 08:57:24;;;;;;;2.58;2.35;;;35.60;46.00;;;;;;5054130;28;20055;-42
2021/08/06 08:59:52;;;;;;;4.25;2.67;;;35.90;46.50;;;;;;5053883;28;20057;-44
2021/08/06 09:02:18;;;;;;;2.95;2.75;;;36.30;42.40;;;;;;5053928;28;20094;-43
2021/08/06 09:04:46;;;;;;;2.90;2.70;;;36.40;39.80;;;;;;5052473;28;20052;-42
2021/08/06 09:07:29;;;;;;;3.30;2.40;;;36.50;39.30;;;;;;5053807;28;20082;-43
2021/08/06 09:10:16;;;;;;;3.95;3.20;;;36.90;33.70;;;;;;5053718;28;20057;-43
2021/08/06 09:12:49;;;;;;;2.60;2.40;;;37.00;32.00;;;;;;5053739;28;20542;-44
2021/08/06 09:15:15;;;;;;;3.05;2.10;;;37.00;35.90;;;;;;5053412;28;20033;-42
2021/08/06 09:17:41;;;;;;;3.35;2.42;;;37.40;36.40;;;;;;5053475;28;20070;-42
2021/08/06 09:20:09;;;;;;;2.30;2.00;;;37.80;35.10;;;;;;5052180;28;20133;-43
2021/08/06 09:22:35;;;;;;;3.00;2.53;;;38.00;34.50;;;;;;5053817;28;20039;-42
2021/08/06 09:25:10;;;;;;;3.42;3.05;;;37.60;28.20;;;;;;5053439;28;20025;-43
2021/08/06 09:27:44;;;;;;;2.60;2.40;;;36.90;30.40;;;;;;5053457;28;20028;-42
2021/08/06 09:30:31;;;;;;;2.90;2.30;;;36.50;31.50;;;;;;5053230;28;20028;-43
2021/08/06 09:32:57;;;;;;;2.60;2.40;;;35.50;31.60;;;;;;5053383;28;20052;-44
2021/08/06 09:35:28;;;;;;;2.50;2.30;;;34.90;32.40;;;;;;5051940;28;20111;-42
2021/08/06 09:37:57;;;;;;;2.20;2.00;;;34.60;32.00;;;;;;5053141;28;20036;-42
2021/08/06 09:40:26;;;;;;;2.10;2.00;;;34.70;31.20;;;;;;5053080;28;20025;-43
2021/08/06 09:43:03;;;;;;;4.68;2.40;;;34.70;31.90;;;;;;5053152;28;20025;-41
2021/08/06 09:45:37;;;;;;;3.70;2.08;;;35.20;29.30;;;;;;5052354;28;20036;-42
2021/08/06 09:48:04;;;;;;;2.20;1.98;;;35.20;29.60;;;;;;5053078;28;20392;-43
2021/08/06 09:50:38;;;;;;;2.92;2.13;;;35.20;30.10;;;;;;5051751;28;20037;-41
2021/08/06 09:53:05;;;;;;;3.42;1.95;;;34.80;29.20;;;;;;5052733;28;20053;-41
2021/08/06 09:55:34;;;;;;;3.03;2.17;;;34.90;29.60;;;;;;5052909;28;20128;-42
2021/08/06 09:58:03;;;;;;;2.80;2.13;;;35.20;29.10;;;;;;5052909;28;20116;-41
2021/08/06 10:00:29;;;;;;;2.65;2.17;;;35.30;29.10;;;;;;5052919;28;20100;-43
2021/08/06 10:02:56;;;;;;;2.30;2.10;;;35.00;29.40;;;;;;5052719;28;20515;-42
2021/08/06 10:05:24;;;;;;;2.13;1.98;;;34.90;29.10;;;;;;5051367;28;20040;-45
2021/08/06 10:07:56;;;;;;;4.05;2.22;;;33.50;30.00;;;;;;5052746;28;20025;-41
2021/08/06 10:10:23;;;;;;;2.17;1.98;;;32.30;30.00;;;;;;5052679;28;20036;-43
2021/08/06 10:12:49;;;;;;;3.03;2.00;;;31.40;29.80;;;;;;5052757;28;20415;-41
2021/08/06 10:15:17;;;;;;;2.60;2.40;;;31.00;30.90;;;;;;5052551;28;20416;-44
2021/08/06 10:17:43;;;;;;;3.92;2.40;;;30.90;32.20;;;;;;5052700;28;20029;-43
2021/08/06 10:20:11;;;;;;;2.65;2.08;;;30.50;32.30;;;;;;5051099;28;20058;-43
2021/08/06 10:22:37;;;;;;;2.50;2.30;;;29.60;32.80;;;;;;5052539;28;20041;-46
2021/08/06 10:25:06;;;;;;;3.80;2.38;;;29.10;34.10;;;;;;5052564;28;20036;-43
2021/08/06 10:27:33;;;;;;;2.58;2.35;;;28.50;36.00;;;;;;5052557;28;20033;-41
2021/08/06 10:30:20;;;;;;;4.90;2.47;;;28.20;37.10;;;;;;5052432;28;20067;-42
2021/08/06 10:33:08;;;;;;;2.42;2.22;;;28.20;38.30;;;;;;5052412;28;20065;-41
2021/08/06 10:35:41;;;;;;;4.45;2.55;;;28.30;38.60;;;;;;5051111;28;20029;-41
2021/08/06 10:38:06;;;;;;;2.85;2.08;;;28.30;38.80;;;;;;5052300;28;20032;-46
2021/08/06 10:40:32;;;;;;;4.13;2.63;;;28.20;39.10;;;;;;5052448;28;20025;-47
2021/08/06 10:43:10;;;;;;;3.03;2.33;;;28.10;40.10;;;;;;5052319;28;20487;-43
2021/08/06 10:45:48;;;;;;;2.35;2.15;;;27.90;41.90;;;;;;5052392;28;20028;-42
2021/08/06 10:48:28;;;;;;;4.97;2.60;;;27.70;40.70;;;;;;5052224;28;20025;-45
2021/08/06 10:51:18;;;;;;;2.63;2.38;;;27.50;43.00;;;;;;5051930;28;20029;-41
2021/08/06 10:53:56;;;;;;;3.95;2.60;;;27.30;42.80;;;;;;5052116;28;20025;-42
2021/08/06 10:56:25;;;;;;;2.70;2.50;;;27.20;42.20;;;;;;5054763;28;20074;-41
2021/08/06 10:58:51;;;;;;;2.42;2.13;;;26.90;43.00;;;;;;5056257;28;20032;-40
2021/08/06 11:01:30;;;;;;;3.60;2.40;;;26.90;43.40;;;;;;5055904;28;20029;-40
2021/08/06 11:04:01;;;;;;;2.00;1.90;;;27.00;42.30;;;;;;5054331;28;20370;-41
2021/08/06 11:06:30;;;;;;;3.03;2.13;;;26.80;43.10;;;;;;5055940;28;20037;-41
2021/08/06 11:08:56;;;;;;;5.95;2.67;;;26.70;43.60;;;;;;5056168;28;20025;-43
2021/08/06 11:11:43;;;;;;;3.28;2.50;;;26.60;45.30;;;;;;5050511;28;20641;-41
2021/08/06 11:14:30;;;;;;;6.85;3.03;;;26.60;44.60;;;;;;5034217;28;20476;-42
2021/08/06 11:17:07;;;;;;;2.72;2.33;;;26.70;44.50;;;;;;5037373;28;20041;-40
2021/08/06 11:19:55;;;;;;;3.35;2.80;;;26.70;45.20;;;;;;5033406;28;20025;-41
2021/08/06 11:22:28;;;;;;;3.83;2.30;;;26.80;43.50;;;;;;5034119;28;20068;-41
2021/08/06 11:25:05;;;;;;;3.92;2.33;;;26.90;42.70;;;;;;5034171;28;20319;-42
2021/08/06 11:27:35;;;;;;;2.42;1.95;;;26.80;43.40;;;;;;5034143;28;20052;-42
2021/08/06 11:30:08;;;;;;;3.22;2.53;;;26.80;43.60;;;;;;5034182;28;20033;-43
2021/08/06 11:33:01;;;;;;;4.80;2.53;;;26.90;42.20;;;;;;5033982;28;20021;-43
2021/08/06 11:35:30;;;;;;;2.67;2.20;;;26.70;42.90;;;;;;5031741;28;20560;-42
2021/08/06 11:38:00;;;;;;;2.92;2.40;;;26.70;43.30;;;;;;5034008;28;20021;-41
2021/08/06 11:40:30;;;;;;;2.65;2.45;;;26.60;43.50;;;;;;5033812;28;20026;-41
2021/08/06 11:42:56;;;;;;;2.60;2.25;;;26.60;43.70;;;;;;5033846;28;20030;-41
2021/08/06 11:45:29;;;;;;;5.50;2.47;;;26.70;44.20;;;;;;5033869;28;20539;-41
2021/08/06 11:48:03;;;;;;;4.53;2.40;;;26.70;44.90;;;;;;5033732;28;20037;-43
2021/08/06 11:50:50;;;;;;;2.78;2.25;;;26.70;45.70;;;;;;5032788;28;20040;-42
2021/08/06 11:53:26;;;;;;;3.10;2.25;;;26.50;44.70;;;;;;5033708;28;20366;-43
2021/08/06 11:55:54;;;;;;;2.40;2.20;;;26.40;44.00;;;;;;5033626;28;20044;-41
2021/08/06 11:58:32;;;;;;;2.83;2.17;;;26.30;45.10;;;;;;5033315;28;20030;-42
2021/08/06 12:01:00;;;;;;;3.58;2.78;;;26.20;46.90;;;;;;5033536;28;20039;-43
2021/08/06 12:03:25;;;;;;;3.00;2.70;;;26.00;47.90;;;;;;5033192;28;20393;-41
2021/08/06 12:05:59;;;;;;;2.67;2.35;;;25.90;49.00;;;;;;5033029;28;20022;-41
2021/08/06 12:08:32;;;;;;;2.50;2.30;;;26.00;49.00;;;;;;5032219;28;20049;-42
2021/08/06 12:11:12;;;;;;;4.68;3.22;;;25.90;49.20;;;;;;5033281;28;20260;-42
2021/08/06 12:13:52;;;;;;;5.53;2.22;;;26.00;50.60;;;;;;5033445;28;20679;-40
2021/08/06 12:16:21;;;;;;;3.70;2.15;;;26.00;51.60;;;;;;5033272;28;20144;-41
2021/08/06 12:18:51;;;;;;;1.98;1.88;;;25.90;50.40;;;;;;5032271;28;20108;-44
2021/08/06 12:21:34;;;;;;;2.70;2.42;;;26.00;50.70;;;;;;5032994;28;20715;-45
2021/08/06 12:24:21;;;;;;;2.95;2.40;;;26.00;50.80;;;;;;5033190;28;20021;-43
2021/08/06 12:26:50;;;;;;;6.05;3.20;;;26.00;50.60;;;;;;5033129;28;20143;-40
2021/08/06 12:29:16;;;;;;;4.03;2.95;;;25.90;50.50;;;;;;5033176;28;20030;-41
2021/08/06 12:32:02;;;;;;;3.20;2.67;;;25.80;50.20;;;;;;5033250;28;20036;-41
2021/08/06 12:34:35;;;;;;;2.60;2.30;;;25.70;50.10;;;;;;5031976;28;20071;-43
2021/08/06 12:37:05;;;;;;;2.78;2.47;;;25.70;51.40;;;;;;5033013;28;20102;-41
2021/08/06 12:39:33;;;;;;;2.28;2.08;;;25.50;51.70;;;;;;5033159;28;20139;-41
2021/08/06 12:42:12;;;;;;;2.58;2.38;;;25.40;52.50;;;;;;5033191;28;20093;-41
2021/08/06 12:44:38;;;;;;;6.15;3.03;;;25.20;53.70;;;;;;5032658;28;20056;-42
2021/08/06 12:47:11;;;;;;;3.25;2.75;;;25.20;53.60;;;;;;5032727;28;20476;-42
2021/08/06 12:49:43;;;;;;;3.10;2.50;;;25.20;54.00;;;;;;5032168;28;20026;-42
2021/08/06 12:52:19;;;;;;;5.45;2.60;;;25.20;55.20;;;;;;5050995;28;20044;-41